Time;durP1;ratioP1;P1;durP2;ratioP2;P2;SDS_P1;SDS_P2;PMS_P1;PMS_P2;Temp;Humidity;BMP_temperature;BMP_pressure;BME280_temperature;BME280_humidity;BME280_pressure;Samples;Min_cycle;Max_cycle;Signal;HPM_P1;HPM_P2
2023/04/10 00:01:02;;;;;;;;;;;;;;;-142.25;100.00;58004.16;4911716;29;19934;-65
2023/04/10 00:03:27;;;;;;;;;;;;;;;-142.25;100.00;58004.16;4913383;29;20420;-62
2023/04/10 00:05:53;;;;;;;;;;;;;;;-142.25;100.00;58004.16;4914036;29;19923;-61
2023/04/10 00:08:22;;;;;;;;;;;;;;;-142.25;100.00;58004.16;4912264;29;19927;-62
2023/04/10 00:10:47;;;;;;;;;;;;;;;-142.25;100.00;58004.16;4914030;29;19931;-63
2023/04/10 00:13:13;;;;;;;;;;;;;;;-142.25;100.00;58004.16;4912539;29;19926;-61
2023/04/10 00:15:39;;;;;;;;;;;;;;;-142.25;100.00;58004.16;4920672;29;20494;-64
2023/04/10 00:18:04;;;;;;;;;;;;;;;-142.25;100.00;58004.16;4913150;29;19927;-62
2023/04/10 00:20:30;;;;;;;;;;;;;;;-142.25;100.00;58004.16;4917659;29;20215;-62
2023/04/10 00:22:55;;;;;;;;;;;;;;;-142.25;100.00;58004.16;4916929;29;20606;-62
2023/04/10 00:25:22;;;;;;;;;;;;;;;-142.25;100.00;58004.16;4916110;29;19923;-62
2023/04/10 00:27:47;;;;;;;;;;;;;;;-142.25;100.00;58004.16;4915825;29;19927;-63
2023/04/10 00:30:13;;;;;;;;;;;;;;;-142.25;100.00;58004.16;4914344;29;19934;-62
2023/04/10 00:32:39;;;;;;;;;;;;;;;-142.25;100.00;58004.16;4915721;29;20339;-68
2023/04/10 00:35:06;;;;;;;;;;;;;;;-142.25;100.00;58004.16;4915435;29;19935;-59
2023/04/10 00:37:32;;;;;;;;;;;;;;;-142.25;100.00;58004.16;4916911;29;19946;-59
2023/04/10 00:39:58;;;;;;;;;;;;;;;-142.25;100.00;58004.16;4915636;29;20035;-61
2023/04/10 00:42:23;;;;;;;;;;;;;;;-142.25;100.00;58004.16;4930324;29;19922;-61
2023/04/10 00:44:49;;;;;;;;;;;;;;;-142.25;100.00;58004.16;4915060;29;20807;-61
2023/04/10 00:47:15;;;;;;;;;;;;;;;-142.25;100.00;58004.16;4915831;29;20504;-61
2023/04/10 00:49:41;;;;;;;;;;;;;;;-142.25;100.00;58004.16;4913550;29;19927;-61
2023/04/10 00:52:06;;;;;;;;;;;;;;;-142.25;100.00;58004.16;4916381;29;20339;-63
2023/04/10 00:54:33;;;;;;;;;;;;;;;-142.25;100.00;58004.16;4913842;29;19923;-60
2023/04/10 00:56:58;;;;;;;;;;;;;;;-142.25;100.00;58004.16;4917606;29;19930;-61
2023/04/10 00:59:25;;;;;;;;;;;;;;;-142.25;100.00;58004.16;4916115;29;20297;-61
2023/04/10 01:01:50;;;;;;;;;;;;;;;-142.25;100.00;58004.16;4915695;29;19922;-60
2023/04/10 01:04:16;;;;;;;;;;;;;;;-142.25;100.00;58004.16;4912713;29;20302;-61
2023/04/10 01:07:01;;;;;;;;;;;;;;;-142.25;100.00;58004.16;4914959;29;20028;-61
2023/04/10 01:09:45;;;;;;;;;;;;;;;-142.25;100.00;58004.16;4921107;29;19923;-61
2023/04/10 01:12:18;;;;;;;;;;;;;;;-142.25;100.00;58004.16;4914145;29;20812;-60
2023/04/10 01:14:56;;;;;;;;;;;;;;;-142.25;100.00;58004.16;4916358;29;21076;-61
2023/04/10 01:17:27;;;;;;;;;;;;;;;-142.25;100.00;58004.16;4914314;29;20755;-61
2023/04/10 01:19:59;;;;;;;;;;;;;;;-142.25;100.00;58004.16;4916056;29;19922;-61
2023/04/10 01:22:32;;;;;;;;;;;;;;;-142.25;100.00;58004.16;4915487;29;20467;-61
2023/04/10 01:25:01;;;;;;;;;;;;;;;-142.25;100.00;58004.16;4915484;29;20398;-61
2023/04/10 01:27:50;;;;;;;;;;;;;;;-142.25;100.00;58004.16;4928324;29;20103;-61
2023/04/10 01:30:17;;;;;;;;;;;;;;;-142.25;100.00;58004.16;4915940;29;20335;-60
2023/04/10 01:32:43;;;;;;;;;;;;;;;-142.25;100.00;58004.16;4913978;29;19933;-62
2023/04/10 01:35:09;;;;;;;;;;;;;;;-142.25;100.00;58004.16;4915006;29;19923;-62
2023/04/10 01:37:37;;;;;;;;;;;;;;;-142.25;100.00;58004.16;4915631;29;19927;-61
2023/04/10 01:40:07;;;;;;;;;;;;;;;-142.25;100.00;58004.16;4899896;29;19931;-62
2023/04/10 01:42:34;;;;;;;;;;;;;;;-142.25;100.00;58004.16;4919207;29;19954;-60
2023/04/10 01:45:02;;;;;;;;;;;;;;;-142.25;100.00;58004.16;4906958;29;19923;-61
2023/04/10 01:47:28;;;;;;;;;;;;;;;-142.25;100.00;58004.16;4914902;29;19930;-62
2023/04/10 01:49:55;;;;;;;;;;;;;;;-142.25;100.00;58004.16;4921876;29;20437;-61
2023/04/10 01:52:21;;;;;;;;;;;;;;;-142.25;100.00;58004.16;4915131;29;19922;-61
2023/04/10 01:54:53;;;;;;;;;;;;;;;-142.25;100.00;58004.16;4917305;29;20017;-61
2023/04/10 01:57:30;;;;;;;;;;;;;;;-142.25;100.00;58004.16;4913649;29;20291;-61
2023/04/10 01:59:57;;;;;;;;;;;;;;;-142.25;100.00;58004.16;4903980;29;19931;-60
2023/04/10 02:02:23;;;;;;;;;;;;;;;-142.25;100.00;58004.16;4916523;29;20223;-60
2023/04/10 02:04:50;;;;;;;;;;;;;;;-142.25;100.00;58004.16;4915791;29;19922;-61
2023/04/10 02:07:22;;;;;;;;;;;;;;;-142.25;100.00;58004.16;4914451;29;19926;-60
2023/04/10 02:09:59;;;;;;;;;;;;;;;-142.25;100.00;58004.16;4914267;29;19930;-60
2023/04/10 02:12:29;;;;;;;;;;;;;;;-142.25;100.00;58004.16;4927915;29;19922;-61
2023/04/10 02:14:58;;;;;;;;;;;;;;;-142.25;100.00;58004.16;4914252;29;20297;-61
2023/04/10 02:17:26;;;;;;;;;;;;;;;-142.25;100.00;58004.16;4912939;29;19922;-60
2023/04/10 02:19:52;;;;;;;;;;;;;;;-142.25;100.00;58004.16;4913990;29;20363;-60
2023/04/10 02:22:18;;;;;;;;;;;;;;;-142.25;100.00;58004.16;4911797;29;20362;-60
2023/04/10 02:24:44;;;;;;;;;;;;;;;-142.25;100.00;58004.16;4912330;29;19923;-61
2023/04/10 02:27:10;;;;;;;;;;;;;;;-142.25;100.00;58004.16;4919734;29;19977;-60
2023/04/10 02:29:35;;;;;;;;;;;;;;;-142.25;100.00;58004.16;4911802;29;19919;-62
2023/04/10 02:32:02;;;;;;;;;;;;;;;-142.25;100.00;58004.16;4914570;29;19933;-62
2023/04/10 02:34:27;;;;;;;;;;;;;;;-142.25;100.00;58004.16;4912568;29;19927;-62
2023/04/10 02:36:53;;;;;;;;;;;;;;;-142.25;100.00;58004.16;4913609;29;19927;-62
2023/04/10 02:39:19;;;;;;;;;;;;;;;-142.25;100.00;58004.16;4910884;29;20107;-62
2023/04/10 02:41:48;;;;;;;;;;;;;;;-142.25;100.00;58004.16;4911576;29;19927;-62
2023/04/10 02:44:14;;;;;;;;;;;;;;;-142.25;100.00;58004.16;4929211;29;19990;-62
2023/04/10 02:46:41;;;;;;;;;;;;;;;-142.25;100.00;58004.16;4912143;29;19927;-62
2023/04/10 02:49:06;;;;;;;;;;;;;;;-142.25;100.00;58004.16;4911343;29;20290;-62
2023/04/10 02:51:35;;;;;;;;;;;;;;;-142.25;100.00;58004.16;4912505;29;19927;-62
2023/04/10 02:54:01;;;;;;;;;;;;;;;-142.25;100.00;58004.16;4911929;29;20302;-62
2023/04/10 02:56:32;;;;;;;;;;;;;;;-142.25;100.00;58004.16;4905543;29;19930;-61
2023/04/10 02:58:57;;;;;;;;;;;;;;;-142.25;100.00;58004.16;4920587;29;20414;-62
2023/04/10 03:01:23;;;;;;;;;;;;;;;-142.25;100.00;58004.16;4926512;29;19931;-62
2023/04/10 03:03:49;;;;;;;;;;;;;;;-142.25;100.00;58004.16;4914450;29;19930;-62
2023/04/10 03:06:26;;;;;;;;;;;;;;;-142.25;100.00;58004.16;4917927;29;19927;-61
2023/04/10 03:08:53;;;;;;;;;;;;;;;-142.25;100.00;58004.16;4911319;29;20568;-60
2023/04/10 03:11:18;;;;;;;;;;;;;;;-142.25;100.00;58004.16;4910889;29;19927;-61
2023/04/10 03:13:44;;;;;;;;;;;;;;;-142.25;100.00;58004.16;4910175;29;19927;-61
2023/04/10 03:16:09;;;;;;;;;;;;;;;-142.25;100.00;58004.16;4914333;29;19993;-61
2023/04/10 03:18:35;;;;;;;;;;;;;;;-142.25;100.00;58004.16;4910822;29;19962;-61
2023/04/10 03:21:01;;;;;;;;;;;;;;;-142.25;100.00;58004.16;4910516;29;20783;-61
2023/04/10 03:23:27;;;;;;;;;;;;;;;-142.25;100.00;58004.16;4912308;29;20417;-62
2023/04/10 03:25:53;;;;;;;;;;;;;;;-142.25;100.00;58004.16;4914434;29;20404;-64
2023/04/10 03:28:20;;;;;;;;;;;;;;;-142.25;100.00;58004.16;4912335;29;19923;-62
2023/04/10 03:30:47;;;;;;;;;;;;;;;-142.25;100.00;58004.16;4913113;29;19945;-62
2023/04/10 03:33:12;;;;;;;;;;;;;;;-142.25;100.00;58004.16;4911160;29;19929;-61
2023/04/10 03:35:38;;;;;;;;;;;;;;;-142.25;100.00;58004.16;4912939;29;19930;-62
2023/04/10 03:38:05;;;;;;;;;;;;;;;-142.25;100.00;58004.16;4911599;29;19918;-62
2023/04/10 03:40:33;;;;;;;;;;;;;;;-142.25;100.00;58004.16;4910404;29;20337;-62
2023/04/10 03:42:59;;;;;;;;;;;;;;;-142.25;100.00;58004.16;4927378;29;19935;-62
2023/04/10 03:45:27;;;;;;;;;;;;;;;-142.25;100.00;58004.16;4912943;29;19961;-62
2023/04/10 03:47:52;;;;;;;;;;;;;;;-142.25;100.00;58004.16;4914186;29;20067;-62
2023/04/10 03:50:18;;;;;;;;;;;;;;;-142.25;100.00;58004.16;4914710;29;19922;-62
2023/04/10 03:52:50;;;;;;;;;;;;;;;-142.25;100.00;58004.16;4912100;29;19981;-62
2023/04/10 03:55:20;;;;;;;;;;;;;;;-142.25;100.00;58004.16;4915260;29;19933;-62
2023/04/10 03:57:47;;;;;;;;;;;;;;;-142.25;100.00;58004.16;4930964;29;20210;-61
2023/04/10 04:00:15;;;;;;;;;;;;;;;-142.25;100.00;58004.16;4916484;29;19965;-60
2023/04/10 04:02:51;;;;;;;;;;;;;;;-142.25;100.00;58004.16;4917560;29;19974;-60
2023/04/10 04:05:36;;;;;;;;;;;;;;;-142.25;100.00;58004.16;4915992;29;20314;-59
2023/04/10 04:08:22;;;;;;;;;;;;;;;-142.25;100.00;58004.16;4916396;29;19974;-61
2023/04/10 04:11:15;;;;;;;;;;;;;;;-142.25;100.00;58004.16;4915307;29;19927;-61
2023/04/10 04:14:00;;;;;;;;;;;;;;;-142.25;100.00;58004.16;4913852;29;19922;-62
2023/04/10 04:16:42;;;;;;;;;;;;;;;-142.25;100.00;58004.16;4913293;29;19927;-62
2023/04/10 04:19:29;;;;;;;;;;;;;;;-142.25;100.00;58004.16;4930446;29;19929;-62
2023/04/10 04:22:21;;;;;;;;;;;;;;;-142.25;100.00;58004.16;4916286;29;19935;-61
2023/04/10 04:24:52;;;;;;;;;;;;;;;-142.25;100.00;58004.16;4913861;29;20005;-62
2023/04/10 04:27:31;;;;;;;;;;;;;;;-142.25;100.00;58004.16;4929119;29;19927;-61
2023/04/10 04:30:07;;;;;;;;;;;;;;;-142.25;100.00;58004.16;4914236;29;19927;-61
2023/04/10 04:32:53;;;;;;;;;;;;;;;-142.25;100.00;58004.16;4915138;29;20423;-62
2023/04/10 04:35:46;;;;;;;;;;;;;;;-142.25;100.00;58004.16;4930155;29;20413;-62
2023/04/10 04:38:29;;;;;;;;;;;;;;;-142.25;100.00;58004.16;4913297;29;19930;-61
2023/04/10 04:41:07;;;;;;;;;;;;;;;-142.25;100.00;58004.16;4922541;29;20390;-61
2023/04/10 04:43:56;;;;;;;;;;;;;;;-142.25;100.00;58004.16;4914387;29;20360;-61
2023/04/10 04:46:45;;;;;;;;;;;;;;;-142.25;100.00;58004.16;4940219;28;20037;-62
2023/04/10 04:49:34;;;;;;;;;;;;;;;-142.25;100.00;58004.16;4932845;28;19926;-62
2023/04/10 04:52:12;;;;;;;;;;;;;;;-142.25;100.00;58004.16;4939724;28;19990;-62
2023/04/10 04:54:41;;;;;;;;;;;;;;;-142.25;100.00;58004.16;4916280;28;20647;-62
2023/04/10 04:57:23;;;;;;;;;;;;;;;-142.25;100.00;58004.16;4924159;28;20029;-62
2023/04/10 05:00:03;;;;;;;;;;;;;;;-142.25;100.00;58004.16;4917136;28;20298;-62
2023/04/10 05:02:47;;;;;;;;;;;;;;;-142.25;100.00;58004.16;4940988;28;19937;-62
2023/04/10 05:05:31;;;;;;;;;;;;;;;-142.25;100.00;58004.16;4939873;28;20005;-62
2023/04/10 05:08:20;;;;;;;;;;;;;;;-142.25;100.00;58004.16;4917073;28;19930;-64
2023/04/10 05:10:59;;;;;;;;;;;;;;;-142.25;100.00;58004.16;4932851;28;19930;-61
2023/04/10 05:13:48;;;;;;;;;;;;;;;-142.25;100.00;58004.16;4910486;29;20026;-62
2023/04/10 05:16:30;;;;;;;;;;;;;;;-142.25;100.00;58004.16;4913766;29;19938;-62
2023/04/10 05:19:16;;;;;;;;;;;;;;;-142.25;100.00;58004.16;4910919;29;19934;-62
2023/04/10 05:22:00;;;;;;;;;;;;;;;-142.25;100.00;58004.16;4911642;29;19933;-62
2023/04/10 05:25:01;;;;;;;;;;;;;;;-142.25;100.00;58004.16;4876193;29;20002;-62
2023/04/10 05:27:35;;;;;;;;;;;;;;;-142.25;100.00;58004.16;4860380;29;19928;-62
2023/04/10 05:30:21;;;;;;;;;;;;;;;-142.25;100.00;58004.16;4884914;29;19949;-62
2023/04/10 05:33:16;;;;;;;;;;;;;;;-142.25;100.00;58004.16;4892966;29;19927;-62
2023/04/10 05:36:06;;;;;;;;;;;;;;;-142.25;100.00;58004.16;4880539;29;20524;-62
2023/04/10 05:38:48;;;;;;;;;;;;;;;-142.25;100.00;58004.16;4893078;29;19931;-62
2023/04/10 05:41:24;;;;;;;;;;;;;;;-142.25;100.00;58004.16;4892503;29;20329;-62
2023/04/10 05:44:08;;;;;;;;;;;;;;;-142.25;100.00;58004.16;4892560;29;19934;-62
2023/04/10 05:46:53;;;;;;;;;;;;;;;-142.25;100.00;58004.16;4894116;29;20393;-62
2023/04/10 05:49:21;;;;;;;;;;;;;;;-142.25;100.00;58004.16;4891521;29;19927;-61
2023/04/10 05:51:59;;;;;;;;;;;;;;;-142.25;100.00;58004.16;4913779;29;20017;-62
2023/04/10 05:54:45;;;;;;;;;;;;;;;-142.25;100.00;58004.16;4910390;29;19977;-61
2023/04/10 05:57:25;;;;;;;;;;;;;;;-142.25;100.00;58004.16;4911519;29;20025;-61
2023/04/10 06:00:23;;;;;;;;;;;;;;;-142.25;100.00;58004.16;4905609;29;20053;-61
2023/04/10 06:03:08;;;;;;;;;;;;;;;-142.25;100.00;58004.16;4920775;29;19930;-61
2023/04/10 06:05:44;;;;;;;;;;;;;;;-142.25;100.00;58004.16;4905033;29;19928;-62
2023/04/10 06:08:11;;;;;;;;;;;;;;;-142.25;100.00;58004.16;4903779;29;20026;-61
2023/04/10 06:10:37;;;;;;;;;;;;;;;-142.25;100.00;58004.16;4907478;29;19927;-61
2023/04/10 06:13:02;;;;;;;;;;;;;;;-142.25;100.00;58004.16;4909878;29;20172;-61
2023/04/10 06:15:28;;;;;;;;;;;;;;;-142.25;100.00;58004.16;4918964;29;20350;-61
2023/04/10 06:17:54;;;;;;;;;;;;;;;-142.25;100.00;58004.16;4911739;29;20259;-61
2023/04/10 06:20:20;;;;;;;;;;;;;;;-142.25;100.00;58004.16;4908107;29;20517;-61
2023/04/10 06:22:46;;;;;;;;;;;;;;;-142.25;100.00;58004.16;4909952;29;20072;-61
2023/04/10 06:25:11;;;;;;;;;;;;;;;-142.25;100.00;58004.16;4912905;28;19927;-61
2023/04/10 06:27:37;;;;;;;;;;;;;;;-142.25;100.00;58004.16;4912913;29;19937;-63
2023/04/10 06:30:06;;;;;;;;;;;;;;;-142.25;100.00;58004.16;4910177;29;19933;-61
2023/04/10 06:32:32;;;;;;;;;;;;;;;-142.25;100.00;58004.16;4910309;29;19927;-62
2023/04/10 06:34:57;;;;;;;;;;;;;;;-142.25;100.00;58004.16;4910342;29;19930;-63
2023/04/10 06:37:28;;;;;;;;;;;;;;;-142.25;100.00;58004.16;4909609;29;19927;-61
2023/04/10 06:40:00;;;;;;;;;;;;;;;-142.25;100.00;58004.16;4911393;29;19934;-62
2023/04/10 06:42:25;;;;;;;;;;;;;;;-142.25;100.00;58004.16;4915522;29;20363;-64
2023/04/10 06:44:57;;;;;;;;;;;;;;;-142.25;100.00;58004.16;4924922;29;19970;-61
2023/04/10 06:47:23;;;;;;;;;;;;;;;-142.25;100.00;58004.16;4911144;29;19926;-61
2023/04/10 06:49:48;;;;;;;;;;;;;;;-142.25;100.00;58004.16;4909467;29;20237;-61
2023/04/10 06:52:14;;;;;;;;;;;;;;;-142.25;100.00;58004.16;4911919;29;19926;-61
2023/04/10 06:54:39;;;;;;;;;;;;;;;-142.25;100.00;58004.16;4910438;29;20406;-61
2023/04/10 06:57:05;;;;;;;;;;;;;;;-142.25;100.00;58004.16;4910057;29;20435;-61
2023/04/10 06:59:33;;;;;;;;;;;;;;;-142.25;100.00;58004.16;4912932;29;20009;-62
2023/04/10 07:01:59;;;;;;;;;;;;;;;-142.25;100.00;58004.16;4910267;29;19954;-62
2023/04/10 07:04:25;;;;;;;;;;;;;;;-142.25;100.00;58004.16;4909688;29;20296;-61
2023/04/10 07:06:50;;;;;;;;;;;;;;;-142.25;100.00;58004.16;4907337;29;19927;-64
2023/04/10 07:09:16;;;;;;;;;;;;;;;-142.25;100.00;58004.16;4910565;29;19970;-63
2023/04/10 07:11:42;;;;;;;;;;;;;;;-142.25;100.00;58004.16;4911262;29;19927;-63
2023/04/10 07:14:07;;;;;;;;;;;;;;;-142.25;100.00;58004.16;4912897;29;19965;-62
2023/04/10 07:16:33;;;;;;;;;;;;;;;-142.25;100.00;58004.16;4910438;29;20041;-62
2023/04/10 07:18:59;;;;;;;;;;;;;;;-142.25;100.00;58004.16;4912146;29;20314;-63
2023/04/10 07:21:26;;;;;;;;;;;;;;;-142.25;100.00;58004.16;4910861;29;20230;-63
2023/04/10 07:23:51;;;;;;;;;;;;;;;-142.25;100.00;58004.16;4907277;29;20518;-63
2023/04/10 07:26:17;;;;;;;;;;;;;;;-142.25;100.00;58004.16;4909673;29;19950;-63
2023/04/10 07:28:43;;;;;;;;;;;;;;;-142.25;100.00;58004.16;4911777;29;20489;-63
2023/04/10 07:31:09;;;;;;;;;;;;;;;-142.25;100.00;58004.16;4911082;29;19933;-63
2023/04/10 07:33:36;;;;;;;;;;;;;;;-142.25;100.00;58004.16;4909405;29;20417;-63
2023/04/10 07:36:02;;;;;;;;;;;;;;;-142.25;100.00;58004.16;4911470;29;20258;-63
2023/04/10 07:38:27;;;;;;;;;;;;;;;-142.25;100.00;58004.16;4908490;29;20382;-63
2023/04/10 07:40:56;;;;;;;;;;;;;;;-142.25;100.00;58004.16;4911797;29;19934;-63
2023/04/10 07:43:22;;;;;;;;;;;;;;;-142.25;100.00;58004.16;4911117;29;20376;-63
2023/04/10 07:45:47;;;;;;;;;;;;;;;-142.25;100.00;58004.16;4911912;29;19926;-63
2023/04/10 07:48:13;;;;;;;;;;;;;;;-142.25;100.00;58004.16;4906658;29;19941;-63
2023/04/10 07:50:39;;;;;;;;;;;;;;;-142.25;100.00;58004.16;4911004;29;19927;-63
2023/04/10 07:53:06;;;;;;;;;;;;;;;-142.25;100.00;58004.16;4908810;29;20379;-63
2023/04/10 07:55:42;;;;;;;;;;;;;;;-142.25;100.00;58004.16;4909508;29;20580;-64
2023/04/10 07:58:08;;;;;;;;;;;;;;;-142.25;100.00;58004.16;4910138;29;20013;-63
2023/04/10 08:00:33;;;;;;;;;;;;;;;-142.25;100.00;58004.16;4909727;29;19923;-63
2023/04/10 08:02:59;;;;;;;;;;;;;;;-142.25;100.00;58004.16;4909740;29;20302;-64
2023/04/10 08:05:24;;;;;;;;;;;;;;;-142.25;100.00;58004.16;4911755;29;19922;-63
2023/04/10 08:07:50;;;;;;;;;;;;;;;-142.25;100.00;58004.16;4910633;29;19922;-63
2023/04/10 08:10:15;;;;;;;;;;;;;;;-142.25;100.00;58004.16;4912720;29;19927;-65
2023/04/10 08:12:41;;;;;;;;;;;;;;;-142.25;100.00;58004.16;4915454;29;19930;-68
2023/04/10 08:15:06;;;;;;;;;;;;;;;-142.25;100.00;58004.16;4909259;29;19979;-65
2023/04/10 08:17:32;;;;;;;;;;;;;;;-142.25;100.00;58004.16;4909104;29;19931;-63
2023/04/10 08:19:57;;;;;;;;;;;;;;;-142.25;100.00;58004.16;4908759;29;19931;-60
2023/04/10 08:22:23;;;;;;;;;;;;;;;-142.25;100.00;58004.16;4909716;29;20397;-60
2023/04/10 08:24:48;;;;;;;;;;;;;;;-142.25;100.00;58004.16;4909078;29;19927;-60
2023/04/10 08:27:15;;;;;;;;;;;;;;;-142.25;100.00;58004.16;4910895;29;19962;-61
2023/04/10 08:29:41;;;;;;;;;;;;;;;-142.25;100.00;58004.16;4909735;29;19987;-61
2023/04/10 08:32:06;;;;;;;;;;;;;;;-142.25;100.00;58004.16;4906715;29;19927;-62
2023/04/10 08:34:32;;;;;;;;;;;;;;;-142.25;100.00;58004.16;4909590;29;20438;-61
2023/04/10 08:36:57;;;;;;;;;;;;;;;-142.25;100.00;58004.16;4913021;29;19927;-61
2023/04/10 08:39:23;;;;;;;;;;;;;;;-142.25;100.00;58004.16;4913442;29;19949;-61
2023/04/10 08:41:49;;;;;;;;;;;;;;;-142.25;100.00;58004.16;4912242;29;19938;-61
2023/04/10 08:44:15;;;;;;;;;;;;;;;-142.25;100.00;58004.16;4915691;29;19934;-59
2023/04/10 08:46:42;;;;;;;;;;;;;;;-142.25;100.00;58004.16;4931400;29;19926;-60
2023/04/10 08:49:09;;;;;;;;;;;;;;;-142.25;100.00;58004.16;4917961;29;19927;-61
2023/04/10 08:51:36;;;;;;;;;;;;;;;-142.25;100.00;58004.16;4912705;29;20445;-61
2023/04/10 08:54:05;;;;;;;;;;;;;;;-142.25;100.00;58004.16;4914346;29;20349;-62
2023/04/10 08:56:32;;;;;;;;;;;;;;;-142.25;100.00;58004.16;4914885;29;20289;-60
2023/04/10 08:58:58;;;;;;;;;;;;;;;-142.25;100.00;58004.16;4910190;29;20438;-61
2023/04/10 09:01:24;;;;;;;;;;;;;;;-142.25;100.00;58004.16;4906637;29;19969;-60
2023/04/10 09:03:50;;;;;;;;;;;;;;;-142.25;100.00;58004.16;4915544;28;19990;-61
2023/04/10 09:06:15;;;;;;;;;;;;;;;-142.25;100.00;58004.16;4916653;28;20001;-61
2023/04/10 09:08:41;;;;;;;;;;;;;;;-142.25;100.00;58004.16;4914878;29;19933;-61
2023/04/10 09:11:06;;;;;;;;;;;;;;;-142.25;100.00;58004.16;4916661;29;19927;-61
2023/04/10 09:13:37;;;;;;;;;;;;;;;-142.25;100.00;58004.16;4914612;29;20386;-61
2023/04/10 09:16:03;;;;;;;;;;;;;;;-142.25;100.00;58004.16;4916110;29;19919;-61
2023/04/10 09:18:39;;;;;;;;;;;;;;;-142.25;100.00;58004.16;4914309;29;20083;-63
2023/04/10 09:21:05;;;;;;;;;;;;;;;-142.25;100.00;58004.16;4931910;29;20048;-64
2023/04/10 09:23:31;;;;;;;;;;;;;;;-142.25;100.00;58004.16;4925646;29;19923;-67
2023/04/10 09:25:57;;;;;;;;;;;;;;;-142.25;100.00;58004.16;4912319;29;19922;-63
2023/04/10 09:28:22;;;;;;;;;;;;;;;-142.25;100.00;58004.16;4916293;29;19930;-65
2023/04/10 09:30:48;;;;;;;;;;;;;;;-142.25;100.00;58004.16;4916276;29;19927;-56
2023/04/10 09:33:28;;;;;;;;;;;;;;;-142.25;100.00;58004.16;4915316;29;19931;-64
2023/04/10 09:36:02;;;;;;;;;;;;;;;-142.25;100.00;58004.16;4918761;29;19990;-66
2023/04/10 09:38:28;;;;;;;;;;;;;;;-142.25;100.00;58004.16;4916764;29;19942;-64
2023/04/10 09:41:05;;;;;;;;;;;;;;;-142.25;100.00;58004.16;4916214;29;20013;-62
2023/04/10 09:43:30;;;;;;;;;;;;;;;-142.25;100.00;58004.16;4917716;29;19930;-62
2023/04/10 09:45:56;;;;;;;;;;;;;;;-142.25;100.00;58004.16;4910124;29;19934;-62
2023/04/10 09:48:23;;;;;;;;;;;;;;;-142.25;100.00;58004.16;4912675;29;19926;-63
2023/04/10 09:50:48;;;;;;;;;;;;;;;-142.25;100.00;58004.16;4914132;29;20390;-63
2023/04/10 09:53:15;;;;;;;;;;;;;;;-142.25;100.00;58004.16;4913780;29;20586;-63
2023/04/10 09:55:41;;;;;;;;;;;;;;;-142.25;100.00;58004.16;4912882;29;19991;-62
2023/04/10 09:58:06;;;;;;;;;;;;;;;-142.25;100.00;58004.16;4914421;29;20396;-63
2023/04/10 10:00:38;;;;;;;;;;;;;;;-142.25;100.00;58004.16;4912839;29;20466;-62
2023/04/10 10:03:06;;;;;;;;;;;;;;;-142.25;100.00;58004.16;4912979;29;20387;-62
2023/04/10 10:05:31;;;;;;;;;;;;;;;-142.25;100.00;58004.16;4914337;29;19946;-61
2023/04/10 10:07:57;;;;;;;;;;;;;;;-142.25;100.00;58004.16;4913960;29;20315;-61
2023/04/10 10:10:23;;;;;;;;;;;;;;;-142.25;100.00;58004.16;4913073;29;20025;-61
2023/04/10 10:12:51;;;;;;;;;;;;;;;-142.25;100.00;58004.16;4915386;29;20385;-62
2023/04/10 10:15:33;;;;;;;;;;;;;;;-142.25;100.00;58004.16;4911755;29;20373;-61
2023/04/10 10:18:06;;;;;;;;;;;;;;;-142.25;100.00;58004.16;4904713;29;20564;-61
2023/04/10 10:20:33;;;;;;;;;;;;;;;-142.25;100.00;58004.16;4914379;29;20369;-61
2023/04/10 10:23:01;;;;;;;;;;;;;;;-142.25;100.00;58004.16;4911167;29;20017;-60
2023/04/10 10:25:27;;;;;;;;;;;;;;;-142.25;100.00;58004.16;4910773;29;20164;-61
2023/04/10 10:27:54;;;;;;;;;;;;;;;-142.25;100.00;58004.16;4928193;29;19930;-60
2023/04/10 10:30:20;;;;;;;;;;;;;;;-142.25;100.00;58004.16;4915306;29;19947;-61
2023/04/10 10:32:46;;;;;;;;;;;;;;;-142.25;100.00;58004.16;4912322;29;19922;-62
2023/04/10 10:35:12;;;;;;;;;;;;;;;-142.25;100.00;58004.16;4912251;29;20420;-61
2023/04/10 10:37:38;;;;;;;;;;;;;;;-142.25;100.00;58004.16;4913390;29;20006;-62
2023/04/10 10:40:07;;;;;;;;;;;;;;;-142.25;100.00;58004.16;4911341;29;19934;-61
2023/04/10 10:42:51;;;;;;;;;;;;;;;-142.25;100.00;58004.16;4913622;29;19938;-61
2023/04/10 10:45:18;;;;;;;;;;;;;;;-142.25;100.00;58004.16;4912864;29;19927;-60
2023/04/10 10:47:51;;;;;;;;;;;;;;;-142.25;100.00;58004.16;4914083;29;20009;-61
2023/04/10 10:50:16;;;;;;;;;;;;;;;-142.25;100.00;58004.16;4913231;29;20283;-61
2023/04/10 10:52:43;;;;;;;;;;;;;;;-142.25;100.00;58004.16;4913435;29;20275;-62
2023/04/10 10:55:21;;;;;;;;;;;;;;;-142.25;100.00;58004.16;4912239;29;20022;-62
2023/04/10 10:57:47;;;;;;;;;;;;;;;-142.25;100.00;58004.16;4913343;29;19954;-62
2023/04/10 11:00:13;;;;;;;;;;;;;;;-142.25;100.00;58004.16;4912074;29;19923;-61
2023/04/10 11:02:39;;;;;;;;;;;;;;;-142.25;100.00;58004.16;4909138;29;20021;-61
2023/04/10 11:05:05;;;;;;;;;;;;;;;-142.25;100.00;58004.16;4912047;29;19922;-61
2023/04/10 11:07:49;;;;;;;;;;;;;;;-142.25;100.00;58004.16;4914391;29;20049;-62
2023/04/10 11:10:15;;;;;;;;;;;;;;;-142.25;100.00;58004.16;4903573;29;19926;-61
2023/04/10 11:12:59;;;;;;;;;;;;;;;-142.25;100.00;58004.16;4910244;29;19977;-61
2023/04/10 11:15:25;;;;;;;;;;;;;;;-142.25;100.00;58004.16;4905689;29;19978;-61
2023/04/10 11:17:52;;;;;;;;;;;;;;;-142.25;100.00;58004.16;4908674;29;19926;-62
2023/04/10 11:20:20;;;;;;;;;;;;;;;-142.25;100.00;58004.16;4910069;29;20289;-62
2023/04/10 11:23:04;;;;;;;;;;;;;;;-142.25;100.00;58004.16;4914812;29;20150;-67
2023/04/10 11:25:45;;;;;;;;;;;;;;;-142.25;100.00;58004.16;4912319;29;19973;-68
2023/04/10 11:28:31;;;;;;;;;;;;;;;-142.25;100.00;58004.16;4913995;29;19919;-62
2023/04/10 11:31:17;;;;;;;;;;;;;;;-142.25;100.00;58004.16;4912565;29;20373;-64
2023/04/10 11:33:42;;;;;;;;;;;;;;;-142.25;100.00;58004.16;4908604;29;20887;-63
2023/04/10 11:36:08;;;;;;;;;;;;;;;-142.25;100.00;58004.16;4913143;29;19922;-67
2023/04/10 11:38:34;;;;;;;;;;;;;;;-142.25;100.00;58004.16;4913455;29;19927;-65
2023/04/10 11:41:03;;;;;;;;;;;;;;;-142.25;100.00;58004.16;4912983;29;20178;-64
2023/04/10 11:43:30;;;;;;;;;;;;;;;-142.25;100.00;58004.16;4911991;29;19927;-64
2023/04/10 11:46:02;;;;;;;;;;;;;;;-142.25;100.00;58004.16;4913861;29;19941;-64
2023/04/10 11:48:28;;;;;;;;;;;;;;;-142.25;100.00;58004.16;4912290;29;19927;-64
2023/04/10 11:50:54;;;;;;;;;;;;;;;-142.25;100.00;58004.16;4913636;29;20485;-64
2023/04/10 11:53:20;;;;;;;;;;;;;;;-142.25;100.00;58004.16;4912940;29;19994;-64
2023/04/10 11:55:46;;;;;;;;;;;;;;;-142.25;100.00;58004.16;4911869;29;20325;-65
2023/04/10 11:58:25;;;;;;;;;;;;;;;-142.25;100.00;58004.16;4913887;29;19923;-66
2023/04/10 12:01:01;;;;;;;;;;;;;;;-142.25;100.00;58004.16;4909839;29;19926;-65
2023/04/10 12:03:37;;;;;;;;;;;;;;;-142.25;100.00;58004.16;4911657;29;19923;-65
2023/04/10 12:06:05;;;;;;;;;;;;;;;-142.25;100.00;58004.16;4912577;29;20756;-65
2023/04/10 12:08:31;;;;;;;;;;;;;;;-142.25;100.00;58004.16;4912406;29;19941;-63
2023/04/10 12:10:57;;;;;;;;;;;;;;;-142.25;100.00;58004.16;4911269;29;19927;-63
2023/04/10 12:13:26;;;;;;;;;;;;;;;-142.25;100.00;58004.16;4910854;29;20034;-65
2023/04/10 12:16:02;;;;;;;;;;;;;;;-142.25;100.00;58004.16;4920249;29;20375;-67
2023/04/10 12:18:28;;;;;;;;;;;;;;;-142.25;100.00;58004.16;4916949;29;20290;-64
2023/04/10 12:20:56;;;;;;;;;;;;;;;-142.25;100.00;58004.16;4915995;29;20045;-67
2023/04/10 12:23:22;;;;;;;;;;;;;;;-142.25;100.00;58004.16;4915832;29;19930;-67
2023/04/10 12:25:48;;;;;;;;;;;;;;;-142.25;100.00;58004.16;4915350;29;20053;-67
2023/04/10 12:28:17;;;;;;;;;;;;;;;-142.25;100.00;58004.16;4916131;29;19930;-67
2023/04/10 12:30:46;;;;;;;;;;;;;;;-142.25;100.00;58004.16;4914777;29;19923;-67
2023/04/10 12:33:12;;;;;;;;;;;;;;;-142.25;100.00;58004.16;4916367;29;20037;-67